sensor_id;sensor_type;location;lat;lon;timestamp;pressure;altitude;pressure_sealevel;temperature;humidity
42951;BME280;28592;51.064;17.192;2022-10-31T00:00:47;100535.05;;;10.46;100.00
42951;BME280;28592;51.064;17.192;2022-10-31T00:03:39;100531.04;;;10.51;100.00
42951;BME280;28592;51.064;17.192;2022-10-31T00:06:24;100538.86;;;10.53;100.00
42951;BME280;28592;51.064;17.192;2022-10-31T00:09:10;100546.25;;;10.49;100.00
42951;BME280;28592;51.064;17.192;2022-10-31T00:11:55;100540.09;;;10.49;100.00
42951;BME280;28592;51.064;17.192;2022-10-31T00:14:40;100536.59;;;10.48;100.00
42951;BME280;28592;51.064;17.192;2022-10-31T00:17:25;100534.45;;;10.42;100.00
42951;BME280;28592;51.064;17.192;2022-10-31T00:20:13;100530.99;;;10.42;100.00
42951;BME280;28592;51.064;17.192;2022-10-31T00:23:03;100532.58;;;10.33;100.00
42951;BME280;28592;51.064;17.192;2022-10-31T00:25:49;100541.63;;;10.31;100.00
42951;BME280;28592;51.064;17.192;2022-10-31T00:28:34;100528.52;;;10.29;100.00
42951;BME280;28592;51.064;17.192;2022-10-31T00:31:20;100538.77;;;10.23;100.00
42951;BME280;28592;51.064;17.192;2022-10-31T00:34:05;100541.67;;;10.20;100.00
42951;BME280;28592;51.064;17.192;2022-10-31T00:36:50;100532.88;;;10.19;100.00
42951;BME280;28592;51.064;17.192;2022-10-31T00:39:35;100546.84;;;10.21;100.00
42951;BME280;28592;51.064;17.192;2022-10-31T00:42:20;100548.64;;;10.21;100.00
42951;BME280;28592;51.064;17.192;2022-10-31T00:45:06;100544.31;;;10.20;100.00
42951;BME280;28592;51.064;17.192;2022-10-31T00:47:51;100544.57;;;10.17;100.00
42951;BME280;28592;51.064;17.192;2022-10-31T00:50:39;100541.07;;;10.16;100.00
42951;BME280;28592;51.064;17.192;2022-10-31T00:53:25;100537.73;;;10.14;100.00
42951;BME280;28592;51.064;17.192;2022-10-31T00:56:10;100541.92;;;10.17;100.00
42951;BME280;28592;51.064;17.192;2022-10-31T00:58:56;100541.45;;;10.12;100.00
42951;BME280;28592;51.064;17.192;2022-10-31T01:01:40;100542.89;;;10.05;100.00
42951;BME280;28592;51.064;17.192;2022-10-31T01:04:25;100547.72;;;10.00;100.00
42951;BME280;28592;51.064;17.192;2022-10-31T01:07:11;100544.38;;;9.98;100.00
42951;BME280;28592;51.064;17.192;2022-10-31T01:09:58;100554.84;;;9.99;100.00
42951;BME280;28592;51.064;17.192;2022-10-31T01:12:46;100555.78;;;9.98;100.00
42951;BME280;28592;51.064;17.192;2022-10-31T01:15:32;100548.81;;;9.97;100.00
42951;BME280;28592;51.064;17.192;2022-10-31T01:18:17;100548.22;;;9.94;100.00
42951;BME280;28592;51.064;17.192;2022-10-31T01:21:11;100547.52;;;9.92;100.00
42951;BME280;28592;51.064;17.192;2022-10-31T01:23:56;100546.67;;;9.91;100.00
42951;BME280;28592;51.064;17.192;2022-10-31T01:26:41;100553.77;;;9.91;100.00
42951;BME280;28592;51.064;17.192;2022-10-31T01:29:29;100551.23;;;9.89;100.00
42951;BME280;28592;51.064;17.192;2022-10-31T01:32:14;100549.56;;;9.88;100.00
42951;BME280;28592;51.064;17.192;2022-10-31T01:35:00;100547.17;;;9.85;100.00
42951;BME280;28592;51.064;17.192;2022-10-31T01:37:45;100546.44;;;9.83;100.00
42951;BME280;28592;51.064;17.192;2022-10-31T01:40:30;100549.58;;;9.77;100.00
42951;BME280;28592;51.064;17.192;2022-10-31T01:43:16;100544.29;;;9.77;100.00
42951;BME280;28592;51.064;17.192;2022-10-31T01:46:01;100541.64;;;9.77;100.00
42951;BME280;28592;51.064;17.192;2022-10-31T01:48:46;100549.11;;;9.72;100.00
42951;BME280;28592;51.064;17.192;2022-10-31T01:51:37;100540.34;;;9.72;100.00
42951;BME280;28592;51.064;17.192;2022-10-31T01:54:32;100545.16;;;9.67;100.00
42951;BME280;28592;51.064;17.192;2022-10-31T01:57:20;100546.01;;;9.67;100.00
42951;BME280;28592;51.064;17.192;2022-10-31T02:00:08;100544.30;;;9.66;100.00
42951;BME280;28592;51.064;17.192;2022-10-31T02:02:54;100554.52;;;9.71;100.00
42951;BME280;28592;51.064;17.192;2022-10-31T02:05:41;100555.49;;;9.70;100.00
42951;BME280;28592;51.064;17.192;2022-10-31T02:08:33;100557.29;;;9.69;100.00
42951;BME280;28592;51.064;17.192;2022-10-31T02:11:18;100560.18;;;9.66;100.00
42951;BME280;28592;51.064;17.192;2022-10-31T02:14:04;100564.89;;;9.63;100.00
42951;BME280;28592;51.064;17.192;2022-10-31T02:16:49;100565.96;;;9.60;100.00
42951;BME280;28592;51.064;17.192;2022-10-31T02:22:41;100571.13;;;9.62;100.00
42951;BME280;28592;51.064;17.192;2022-10-31T02:28:35;100564.05;;;9.62;100.00
42951;BME280;28592;51.064;17.192;2022-10-31T02:31:32;100567.42;;;9.53;100.00
42951;BME280;28592;51.064;17.192;2022-10-31T02:34:25;100569.09;;;9.54;100.00
42951;BME280;28592;51.064;17.192;2022-10-31T02:37:24;100566.00;;;9.49;100.00
42951;BME280;28592;51.064;17.192;2022-10-31T02:40:22;100569.34;;;9.51;100.00
42951;BME280;28592;51.064;17.192;2022-10-31T02:43:12;100570.19;;;9.52;100.00
42951;BME280;28592;51.064;17.192;2022-10-31T02:48:58;100564.29;;;9.48;100.00
42951;BME280;28592;51.064;17.192;2022-10-31T02:51:46;100566.09;;;9.48;100.00
42951;BME280;28592;51.064;17.192;2022-10-31T02:54:34;100573.32;;;9.46;100.00
42951;BME280;28592;51.064;17.192;2022-10-31T03:00:15;100559.73;;;9.39;100.00
42951;BME280;28592;51.064;17.192;2022-10-31T03:03:16;100574.05;;;9.37;100.00
42951;BME280;28592;51.064;17.192;2022-10-31T03:09:03;100574.17;;;9.35;100.00
42951;BME280;28592;51.064;17.192;2022-10-31T03:20:54;100578.72;;;9.33;100.00
42951;BME280;28592;51.064;17.192;2022-10-31T03:23:44;100585.11;;;9.31;100.00
42951;BME280;28592;51.064;17.192;2022-10-31T03:26:36;100588.92;;;9.27;100.00
42951;BME280;28592;51.064;17.192;2022-10-31T03:29:32;100584.73;;;9.24;100.00
42951;BME280;28592;51.064;17.192;2022-10-31T03:32:26;100593.64;;;9.23;100.00
42951;BME280;28592;51.064;17.192;2022-10-31T03:35:19;100584.97;;;9.21;100.00
42951;BME280;28592;51.064;17.192;2022-10-31T03:38:06;100596.02;;;9.15;100.00
42951;BME280;28592;51.064;17.192;2022-10-31T03:40:53;100585.56;;;9.14;100.00
42951;BME280;28592;51.064;17.192;2022-10-31T03:43:47;100592.64;;;9.13;100.00
42951;BME280;28592;51.064;17.192;2022-10-31T03:46:36;100594.33;;;9.03;100.00
42951;BME280;28592;51.064;17.192;2022-10-31T03:49:21;100598.88;;;9.01;100.00
42951;BME280;28592;51.064;17.192;2022-10-31T03:55:16;100600.78;;;8.88;100.00
42951;BME280;28592;51.064;17.192;2022-10-31T03:58:06;100603.42;;;8.88;100.00
42951;BME280;28592;51.064;17.192;2022-10-31T04:03:59;100616.64;;;8.88;100.00
42951;BME280;28592;51.064;17.192;2022-10-31T04:06:46;100609.53;;;8.88;100.00
42951;BME280;28592;51.064;17.192;2022-10-31T04:09:34;100605.80;;;8.80;100.00
42951;BME280;28592;51.064;17.192;2022-10-31T04:12:22;100605.80;;;8.80;100.00
42951;BME280;28592;51.064;17.192;2022-10-31T04:15:10;100605.80;;;8.80;100.00
42951;BME280;28592;51.064;17.192;2022-10-31T04:17:58;100609.41;;;8.79;100.00
42951;BME280;28592;51.064;17.192;2022-10-31T04:20:44;100602.42;;;8.78;100.00
42951;BME280;28592;51.064;17.192;2022-10-31T04:23:31;100615.16;;;8.73;100.00
42951;BME280;28592;51.064;17.192;2022-10-31T04:26:16;100612.02;;;8.68;100.00
42951;BME280;28592;51.064;17.192;2022-10-31T04:29:01;100603.23;;;8.67;100.00
42951;BME280;28592;51.064;17.192;2022-10-31T04:31:47;100605.02;;;8.67;100.00
42951;BME280;28592;51.064;17.192;2022-10-31T04:34:32;100607.78;;;8.65;100.00
42951;BME280;28592;51.064;17.192;2022-10-31T04:37:17;100604.20;;;8.66;100.00
42951;BME280;28592;51.064;17.192;2022-10-31T04:40:03;100616.67;;;8.64;100.00
42951;BME280;28592;51.064;17.192;2022-10-31T04:42:52;100618.46;;;8.64;100.00
42951;BME280;28592;51.064;17.192;2022-10-31T04:45:37;100610.53;;;8.64;100.00
42951;BME280;28592;51.064;17.192;2022-10-31T04:48:22;100611.62;;;8.61;100.00
42951;BME280;28592;51.064;17.192;2022-10-31T04:51:08;100611.62;;;8.61;100.00
42951;BME280;28592;51.064;17.192;2022-10-31T04:53:53;100617.13;;;8.58;100.00
42951;BME280;28592;51.064;17.192;2022-10-31T04:56:38;100609.20;;;8.58;100.00
42951;BME280;28592;51.064;17.192;2022-10-31T04:59:24;100616.16;;;8.59;100.00
42951;BME280;28592;51.064;17.192;2022-10-31T05:02:09;100620.51;;;8.60;100.00
42951;BME280;28592;51.064;17.192;2022-10-31T05:04:54;100619.43;;;8.63;100.00
42951;BME280;28592;51.064;17.192;2022-10-31T05:07:44;100623.74;;;8.64;100.00
42951;BME280;28592;51.064;17.192;2022-10-31T05:10:30;100615.94;;;8.62;100.00
42951;BME280;28592;51.064;17.192;2022-10-31T05:13:16;100632.29;;;8.67;100.00
42951;BME280;28592;51.064;17.192;2022-10-31T05:16:01;100626.16;;;8.67;100.00
42951;BME280;28592;51.064;17.192;2022-10-31T05:18:47;100629.30;;;8.72;100.00
42951;BME280;28592;51.064;17.192;2022-10-31T05:21:33;100624.98;;;8.71;100.00
42951;BME280;28592;51.064;17.192;2022-10-31T05:24:18;100632.17;;;8.69;100.00
42951;BME280;28592;51.064;17.192;2022-10-31T05:27:06;100632.91;;;8.71;100.00
42951;BME280;28592;51.064;17.192;2022-10-31T05:29:51;100631.24;;;8.70;100.00
42951;BME280;28592;51.064;17.192;2022-10-31T05:32:43;100636.52;;;8.70;100.00
42951;BME280;28592;51.064;17.192;2022-10-31T05:35:31;100633.77;;;8.71;100.00
42951;BME280;28592;51.064;17.192;2022-10-31T05:38:17;100631.24;;;8.70;100.00
42951;BME280;28592;51.064;17.192;2022-10-31T05:41:02;100642.46;;;8.61;100.00
42951;BME280;28592;51.064;17.192;2022-10-31T05:43:50;100633.72;;;8.60;100.00
42951;BME280;28592;51.064;17.192;2022-10-31T05:46:36;100649.11;;;8.43;100.00
42951;BME280;28592;51.064;17.192;2022-10-31T05:49:21;100637.84;;;8.41;100.00
42951;BME280;28592;51.064;17.192;2022-10-31T05:52:09;100644.56;;;8.45;100.00
42951;BME280;28592;51.064;17.192;2022-10-31T05:54:54;100647.83;;;8.48;100.00
42951;BME280;28592;51.064;17.192;2022-10-31T05:57:40;100645.90;;;8.50;100.00
42951;BME280;28592;51.064;17.192;2022-10-31T06:00:26;100652.03;;;8.51;100.00
42951;BME280;28592;51.064;17.192;2022-10-31T06:03:11;100649.05;;;8.55;100.00
42951;BME280;28592;51.064;17.192;2022-10-31T06:05:57;100641.02;;;8.57;100.00
42951;BME280;28592;51.064;17.192;2022-10-31T06:08:43;100650.50;;;8.59;100.00
42951;BME280;28592;51.064;17.192;2022-10-31T06:11:28;100642.69;;;8.58;100.00
42951;BME280;28592;51.064;17.192;2022-10-31T06:14:13;100652.69;;;8.65;100.00
42951;BME280;28592;51.064;17.192;2022-10-31T06:16:58;100658.59;;;8.69;100.00
42951;BME280;28592;51.064;17.192;2022-10-31T06:19:44;100655.09;;;8.68;100.00
42951;BME280;28592;51.064;17.192;2022-10-31T06:22:29;100650.72;;;8.80;100.00
42951;BME280;28592;51.064;17.192;2022-10-31T06:25:15;100653.36;;;8.80;100.00
42951;BME280;28592;51.064;17.192;2022-10-31T06:28:00;100659.05;;;8.98;100.00
42951;BME280;28592;51.064;17.192;2022-10-31T06:30:46;100649.44;;;8.97;100.00
42951;BME280;28592;51.064;17.192;2022-10-31T06:33:32;100661.23;;;9.04;100.00
42951;BME280;28592;51.064;17.192;2022-10-31T06:36:17;100669.81;;;9.18;100.00
42951;BME280;28592;51.064;17.192;2022-10-31T06:39:05;100667.28;;;9.17;100.00
42951;BME280;28592;51.064;17.192;2022-10-31T06:41:51;100666.58;;;9.26;100.00
42951;BME280;28592;51.064;17.192;2022-10-31T06:44:36;100673.47;;;9.50;100.00
42951;BME280;28592;51.064;17.192;2022-10-31T06:47:21;100669.97;;;9.50;100.00
42951;BME280;28592;51.064;17.192;2022-10-31T06:50:07;100671.55;;;9.63;100.00
42951;BME280;28592;51.064;17.192;2022-10-31T06:52:54;100676.86;;;9.85;100.00
42951;BME280;28592;51.064;17.192;2022-10-31T06:55:43;100677.55;;;9.98;100.00
42951;BME280;28592;51.064;17.192;2022-10-31T06:58:29;100687.69;;;10.15;100.00
42951;BME280;28592;51.064;17.192;2022-10-31T07:01:17;100683.36;;;10.14;100.00
42951;BME280;28592;51.064;17.192;2022-10-31T07:04:04;100681.16;;;10.30;100.00
42951;BME280;28592;51.064;17.192;2022-10-31T07:07:01;100684.27;;;10.46;100.00
42951;BME280;28592;51.064;17.192;2022-10-31T07:09:59;100696.38;;;10.92;100.00
42951;BME280;28592;51.064;17.192;2022-10-31T07:12:48;100693.69;;;11.03;100.00
42951;BME280;28592;51.064;17.192;2022-10-31T07:15:38;100693.81;;;11.22;100.00
42951;BME280;28592;51.064;17.192;2022-10-31T07:18:23;100689.73;;;11.38;100.00
42951;BME280;28592;51.064;17.192;2022-10-31T07:21:11;100696.41;;;11.53;100.00
42951;BME280;28592;51.064;17.192;2022-10-31T07:24:00;100700.17;;;11.71;100.00
42951;BME280;28592;51.064;17.192;2022-10-31T07:26:47;100703.48;;;11.94;100.00
42951;BME280;28592;51.064;17.192;2022-10-31T07:29:35;100707.19;;;12.12;100.00
42951;BME280;28592;51.064;17.192;2022-10-31T07:32:23;100713.80;;;12.27;100.00
42951;BME280;28592;51.064;17.192;2022-10-31T07:35:14;100715.23;;;12.40;100.00
42951;BME280;28592;51.064;17.192;2022-10-31T07:40:55;100717.23;;;12.58;100.00
42951;BME280;28592;51.064;17.192;2022-10-31T07:43:44;100710.12;;;12.77;100.00
42951;BME280;28592;51.064;17.192;2022-10-31T07:46:37;100713.25;;;13.20;100.00
42951;BME280;28592;51.064;17.192;2022-10-31T07:49:29;100723.72;;;13.41;100.00
42951;BME280;28592;51.064;17.192;2022-10-31T07:52:19;100712.20;;;13.59;100.00
42951;BME280;28592;51.064;17.192;2022-10-31T07:55:13;100707.25;;;13.83;100.00
42951;BME280;28592;51.064;17.192;2022-10-31T07:58:17;100708.83;;;14.03;100.00
42951;BME280;28592;51.064;17.192;2022-10-31T08:01:12;100717.72;;;14.22;100.00
42951;BME280;28592;51.064;17.192;2022-10-31T08:03:57;100710.67;;;14.40;100.00
42951;BME280;28592;51.064;17.192;2022-10-31T08:06:58;100714.30;;;14.39;100.00
42951;BME280;28592;51.064;17.192;2022-10-31T08:09:55;100715.11;;;14.49;100.00
42951;BME280;28592;51.064;17.192;2022-10-31T08:12:54;100721.61;;;14.64;100.00
42951;BME280;28592;51.064;17.192;2022-10-31T08:15:48;100713.94;;;14.96;100.00
42951;BME280;28592;51.064;17.192;2022-10-31T08:18:43;100709.50;;;15.22;100.00
42951;BME280;28592;51.064;17.192;2022-10-31T08:21:39;100705.07;;;15.48;100.00
42951;BME280;28592;51.064;17.192;2022-10-31T08:24:40;100715.92;;;15.72;100.00
42951;BME280;28592;51.064;17.192;2022-10-31T08:27:31;100717.27;;;15.76;100.00
42951;BME280;28592;51.064;17.192;2022-10-31T08:30:29;100714.88;;;15.99;100.00
42951;BME280;28592;51.064;17.192;2022-10-31T08:33:28;100714.61;;;16.10;100.00
42951;BME280;28592;51.064;17.192;2022-10-31T08:36:34;100721.87;;;16.25;100.00
42951;BME280;28592;51.064;17.192;2022-10-31T08:39:36;100722.78;;;16.42;100.00
42951;BME280;28592;51.064;17.192;2022-10-31T08:42:36;100733.06;;;16.54;100.00
42951;BME280;28592;51.064;17.192;2022-10-31T08:45:34;100726.86;;;16.54;100.00
42951;BME280;28592;51.064;17.192;2022-10-31T08:51:28;100725.28;;;16.85;100.00
42951;BME280;28592;51.064;17.192;2022-10-31T08:54:16;100724.44;;;16.84;100.00
42951;BME280;28592;51.064;17.192;2022-10-31T08:57:01;100717.75;;;16.80;100.00
42951;BME280;28592;51.064;17.192;2022-10-31T08:59:49;100720.27;;;16.98;100.00
42951;BME280;28592;51.064;17.192;2022-10-31T09:02:34;100720.14;;;17.15;100.00
42951;BME280;28592;51.064;17.192;2022-10-31T09:05:21;100715.28;;;17.27;100.00
42951;BME280;28592;51.064;17.192;2022-10-31T09:08:07;100712.94;;;17.32;100.00
42951;BME280;28592;51.064;17.192;2022-10-31T09:10:55;100713.11;;;17.30;100.00
42951;BME280;28592;51.064;17.192;2022-10-31T09:13:41;100731.86;;;17.30;100.00
42951;BME280;28592;51.064;17.192;2022-10-31T09:16:29;100718.64;;;17.29;100.00
42951;BME280;28592;51.064;17.192;2022-10-31T09:19:15;100719.46;;;17.78;100.00
42951;BME280;28592;51.064;17.192;2022-10-31T09:22:00;100715.93;;;17.77;100.00
42951;BME280;28592;51.064;17.192;2022-10-31T09:24:45;100719.80;;;17.83;100.00
42951;BME280;28592;51.064;17.192;2022-10-31T09:27:31;100719.97;;;17.81;100.00
42951;BME280;28592;51.064;17.192;2022-10-31T09:30:17;100728.12;;;18.04;98.95
42951;BME280;28592;51.064;17.192;2022-10-31T09:33:05;100727.16;;;18.35;94.36
42951;BME280;28592;51.064;17.192;2022-10-31T09:35:52;100723.63;;;18.43;93.24
42951;BME280;28592;51.064;17.192;2022-10-31T09:38:37;100727.95;;;18.52;92.26
42951;BME280;28592;51.064;17.192;2022-10-31T09:41:32;100719.05;;;18.51;92.32
42951;BME280;28592;51.064;17.192;2022-10-31T09:50:21;100725.05;;;18.92;89.66
42951;BME280;28592;51.064;17.192;2022-10-31T09:56:21;100726.35;;;18.96;88.36
42951;BME280;28592;51.064;17.192;2022-10-31T10:05:24;100721.37;;;19.38;86.71
42951;BME280;28592;51.064;17.192;2022-10-31T10:08:18;100732.31;;;19.37;86.92
42951;BME280;28592;51.064;17.192;2022-10-31T10:14:18;100719.39;;;19.69;85.35
42951;BME280;28592;51.064;17.192;2022-10-31T10:32:12;100717.95;;;20.10;82.12
42951;BME280;28592;51.064;17.192;2022-10-31T10:41:05;100707.38;;;20.38;81.66
42951;BME280;28592;51.064;17.192;2022-10-31T10:43:54;100705.72;;;20.37;81.79
42951;BME280;28592;51.064;17.192;2022-10-31T10:46:51;100703.46;;;20.55;81.76
42951;BME280;28592;51.064;17.192;2022-10-31T10:49:55;100698.30;;;20.74;81.23
42951;BME280;28592;51.064;17.192;2022-10-31T10:58:39;100697.33;;;20.46;80.56
42951;BME280;28592;51.064;17.192;2022-10-31T11:01:34;100691.95;;;20.97;81.28
42951;BME280;28592;51.064;17.192;2022-10-31T11:04:32;100685.53;;;20.83;80.48
42951;BME280;28592;51.064;17.192;2022-10-31T11:07:36;100683.03;;;20.81;80.54
42951;BME280;28592;51.064;17.192;2022-10-31T11:10:22;100690.33;;;21.02;80.50
42951;BME280;28592;51.064;17.192;2022-10-31T11:13:21;100688.22;;;20.98;79.98
42951;BME280;28592;51.064;17.192;2022-10-31T11:22:21;100683.98;;;21.10;79.11
42951;BME280;28592;51.064;17.192;2022-10-31T11:25:21;100685.02;;;21.09;79.24
42951;BME280;28592;51.064;17.192;2022-10-31T11:28:09;100669.99;;;21.21;78.31
42951;BME280;28592;51.064;17.192;2022-10-31T11:31:01;100675.89;;;21.10;78.25
42951;BME280;28592;51.064;17.192;2022-10-31T11:34:03;100676.73;;;21.10;78.16
42951;BME280;28592;51.064;17.192;2022-10-31T11:36:47;100668.05;;;21.36;78.21
42951;BME280;28592;51.064;17.192;2022-10-31T11:39:41;100666.58;;;21.33;78.79
42951;BME280;28592;51.064;17.192;2022-10-31T11:42:39;100669.17;;;21.48;77.43
42951;BME280;28592;51.064;17.192;2022-10-31T11:45:35;100670.02;;;21.48;77.32
42951;BME280;28592;51.064;17.192;2022-10-31T11:48:28;100656.02;;;21.66;78.01
42951;BME280;28592;51.064;17.192;2022-10-31T11:51:32;100663.97;;;21.74;77.79
42951;BME280;28592;51.064;17.192;2022-10-31T12:09:19;100649.32;;;21.83;75.83
42951;BME280;28592;51.064;17.192;2022-10-31T12:12:19;100661.62;;;21.92;75.82
42951;BME280;28592;51.064;17.192;2022-10-31T12:18:22;100658.82;;;22.13;75.18
42951;BME280;28592;51.064;17.192;2022-10-31T12:21:19;100658.70;;;22.27;75.80
42951;BME280;28592;51.064;17.192;2022-10-31T12:24:22;100657.05;;;22.33;74.77
42951;BME280;28592;51.064;17.192;2022-10-31T12:27:25;100647.29;;;22.32;74.74
42951;BME280;28592;51.064;17.192;2022-10-31T12:30:15;100651.68;;;22.46;74.47
42951;BME280;28592;51.064;17.192;2022-10-31T12:36:12;100644.80;;;22.37;74.22
42951;BME280;28592;51.064;17.192;2022-10-31T12:39:06;100649.38;;;22.36;74.22
42951;BME280;28592;51.064;17.192;2022-10-31T12:42:07;100648.17;;;21.98;74.60
42951;BME280;28592;51.064;17.192;2022-10-31T12:44:59;100644.37;;;21.86;74.98
42951;BME280;28592;51.064;17.192;2022-10-31T12:50:51;100645.48;;;22.05;75.41
42951;BME280;28592;51.064;17.192;2022-10-31T13:02:41;100638.95;;;22.27;74.80
42951;BME280;28592;51.064;17.192;2022-10-31T13:05:33;100637.70;;;22.29;77.17
42951;BME280;28592;51.064;17.192;2022-10-31T13:08:28;100629.67;;;22.42;74.90
42951;BME280;28592;51.064;17.192;2022-10-31T13:14:25;100629.47;;;22.44;75.47
42951;BME280;28592;51.064;17.192;2022-10-31T13:17:24;100629.27;;;22.45;75.84
42951;BME280;28592;51.064;17.192;2022-10-31T13:20:19;100620.72;;;22.42;75.61
42951;BME280;28592;51.064;17.192;2022-10-31T13:26:11;100623.25;;;22.50;76.43
42951;BME280;28592;51.064;17.192;2022-10-31T13:29:05;100623.25;;;22.50;76.51
42951;BME280;28592;51.064;17.192;2022-10-31T13:31:53;100616.36;;;22.47;75.19
42951;BME280;28592;51.064;17.192;2022-10-31T13:34:45;100621.13;;;22.39;76.26
42951;BME280;28592;51.064;17.192;2022-10-31T13:37:44;100614.08;;;22.38;75.80
42951;BME280;28592;51.064;17.192;2022-10-31T13:40:41;100616.57;;;22.46;76.77
42951;BME280;28592;51.064;17.192;2022-10-31T13:52:24;100605.82;;;22.53;77.12
42951;BME280;28592;51.064;17.192;2022-10-31T13:58:33;100609.17;;;22.68;75.30
42951;BME280;28592;51.064;17.192;2022-10-31T14:04:15;100595.08;;;22.85;75.33
42951;BME280;28592;51.064;17.192;2022-10-31T14:07:07;100601.73;;;22.89;75.08
42951;BME280;28592;51.064;17.192;2022-10-31T14:10:05;100597.13;;;22.77;75.75
42951;BME280;28592;51.064;17.192;2022-10-31T14:12:51;100599.63;;;22.78;74.97
42951;BME280;28592;51.064;17.192;2022-10-31T14:15:39;100593.41;;;22.78;74.86
42951;BME280;28592;51.064;17.192;2022-10-31T14:18:36;100593.80;;;22.55;75.54
42951;BME280;28592;51.064;17.192;2022-10-31T14:21:30;100594.53;;;22.36;76.78
42951;BME280;28592;51.064;17.192;2022-10-31T14:30:17;100599.76;;;22.44;77.37
42951;BME280;28592;51.064;17.192;2022-10-31T14:33:13;100600.00;;;22.02;78.25
42951;BME280;28592;51.064;17.192;2022-10-31T14:36:10;100593.06;;;21.80;79.01
42951;BME280;28592;51.064;17.192;2022-10-31T14:42:11;100594.78;;;21.60;80.39
42951;BME280;28592;51.064;17.192;2022-10-31T14:53:55;100589.86;;;21.36;81.91
42951;BME280;28592;51.064;17.192;2022-10-31T14:56:52;100591.83;;;21.21;82.10
42951;BME280;28592;51.064;17.192;2022-10-31T14:59:42;100587.16;;;21.08;82.37
42951;BME280;28592;51.064;17.192;2022-10-31T15:05:22;100578.91;;;20.67;84.05
42951;BME280;28592;51.064;17.192;2022-10-31T15:08:26;100580.75;;;20.67;84.06
42951;BME280;28592;51.064;17.192;2022-10-31T15:11:19;100590.67;;;20.45;85.32
42951;BME280;28592;51.064;17.192;2022-10-31T15:14:17;100586.30;;;20.23;86.88
42951;BME280;28592;51.064;17.192;2022-10-31T15:17:02;100582.52;;;20.03;88.66
42951;BME280;28592;51.064;17.192;2022-10-31T15:19:49;100591.70;;;19.80;90.18
42951;BME280;28592;51.064;17.192;2022-10-31T15:22:38;100590.90;;;19.50;91.32
42951;BME280;28592;51.064;17.192;2022-10-31T15:25:26;100594.98;;;19.09;93.35
42951;BME280;28592;51.064;17.192;2022-10-31T15:28:22;100600.84;;;18.90;93.93
42951;BME280;28592;51.064;17.192;2022-10-31T15:31:13;100590.84;;;18.61;94.25
42951;BME280;28592;51.064;17.192;2022-10-31T15:34:06;100596.88;;;18.33;95.81
42951;BME280;28592;51.064;17.192;2022-10-31T15:36:55;100590.00;;;18.00;98.80
42951;BME280;28592;51.064;17.192;2022-10-31T15:39:41;100594.80;;;17.74;100.00
42951;BME280;28592;51.064;17.192;2022-10-31T15:42:35;100587.78;;;17.73;100.00
42951;BME280;28592;51.064;17.192;2022-10-31T15:45:26;100590.20;;;17.52;100.00
42951;BME280;28592;51.064;17.192;2022-10-31T15:48:22;100586.85;;;17.49;100.00
42951;BME280;28592;51.064;17.192;2022-10-31T15:51:09;100592.06;;;17.27;100.00
42951;BME280;28592;51.064;17.192;2022-10-31T15:53:55;100590.44;;;16.94;100.00
42951;BME280;28592;51.064;17.192;2022-10-31T15:56:44;100593.12;;;16.94;100.00
42951;BME280;28592;51.064;17.192;2022-10-31T15:59:29;100599.30;;;16.70;100.00
42951;BME280;28592;51.064;17.192;2022-10-31T16:02:22;100600.59;;;16.42;100.00
42951;BME280;28592;51.064;17.192;2022-10-31T16:05:15;100614.59;;;16.28;100.00
42951;BME280;28592;51.064;17.192;2022-10-31T16:08:00;100600.38;;;16.28;100.00
42951;BME280;28592;51.064;17.192;2022-10-31T16:10:46;100606.34;;;16.14;100.00
42951;BME280;28592;51.064;17.192;2022-10-31T16:13:38;100602.05;;;15.79;100.00
42951;BME280;28592;51.064;17.192;2022-10-31T16:16:31;100600.38;;;15.78;100.00
42951;BME280;28592;51.064;17.192;2022-10-31T16:19:23;100611.30;;;15.59;100.00
42951;BME280;28592;51.064;17.192;2022-10-31T16:22:12;100608.55;;;15.43;100.00
42951;BME280;28592;51.064;17.192;2022-10-31T16:25:08;100608.30;;;15.36;100.00
42951;BME280;28592;51.064;17.192;2022-10-31T16:28:01;100606.42;;;15.29;100.00
42951;BME280;28592;51.064;17.192;2022-10-31T16:30:48;100602.09;;;15.28;100.00
42951;BME280;28592;51.064;17.192;2022-10-31T16:33:37;100610.97;;;15.11;100.00
42951;BME280;28592;51.064;17.192;2022-10-31T16:36:31;100606.12;;;14.89;100.00
42951;BME280;28592;51.064;17.192;2022-10-31T16:39:17;100606.12;;;14.89;100.00
42951;BME280;28592;51.064;17.192;2022-10-31T16:42:02;100604.53;;;14.78;100.00
42951;BME280;28592;51.064;17.192;2022-10-31T16:44:48;100616.50;;;14.57;100.00
42951;BME280;28592;51.064;17.192;2022-10-31T16:47:33;100616.59;;;14.47;100.00
42951;BME280;28592;51.064;17.192;2022-10-31T16:50:25;100609.56;;;14.46;100.00
42951;BME280;28592;51.064;17.192;2022-10-31T16:53:10;100606.45;;;14.33;100.00
42951;BME280;28592;51.064;17.192;2022-10-31T16:56:01;100616.44;;;14.22;100.00
42951;BME280;28592;51.064;17.192;2022-10-31T16:58:47;100608.98;;;14.07;100.00
42951;BME280;28592;51.064;17.192;2022-10-31T17:01:32;100607.20;;;13.98;100.00
42951;BME280;28592;51.064;17.192;2022-10-31T17:04:19;100606.80;;;13.93;100.00
42951;BME280;28592;51.064;17.192;2022-10-31T17:07:05;100602.08;;;13.87;100.00
42951;BME280;28592;51.064;17.192;2022-10-31T17:09:52;100614.98;;;13.82;100.00
42951;BME280;28592;51.064;17.192;2022-10-31T17:12:40;100613.06;;;13.75;100.00